Taos, NM (87571)

7:24 PM MST on February 07, 2016 (GMT -0700)
Blueberry Hill | | Change Station
CLOSE
Current Station
Personal Weather Station
Location: El Prado, NM
Elevation: 7064 ft
Nearby Weather Stations

Elev 7064 ft 36.43 °N, 105.60 °W | Updated 11 minutes ago

Clear
Clear
27.5 °F
Feels Like 24 °F
N
3.2
Wind Variable Wind from ENE

Today
High -- | Low -- °F
--% Chance of Precip.
Yesterday
High -- | Low -- °F
Precip. -- in
Pressure 30.36 in
Visibility 10.0 miles
Clouds Clear
Windchill 24 °F
Dew Point 22 °F
Humidity 81%
Rainfall 0.00 in
Snow Depth Not available.
6:58 AM 5:34 PM
Waning Crescent, 0% visible
METAR KSKX 080215Z AUTO 00000KT 10SM CLR M04/M09 A3036 RMK AO1
Pressure 30.36 in
Visibility 10.0 miles
Clouds Clear
Windchill 24 °F
Dew Point 22 °F
Humidity 81%
Rainfall 0.00 in
Snow Depth Not available.
6:58 AM 5:34 PM
Waning Crescent, 0% visible
METAR KSKX 080215Z AUTO 00000KT 10SM CLR M04/M09 A3036 RMK AO1

10-Day Weather Forecast

Almanac

Astronomy

Feb. 07, 2016 Rise Set
Actual Time
Civil Twilight
Nautical Twilight
Astronomical Twilight
Moon
Length of Visible Light
Length of Day
Tomorrow will be .
, % of the Moon is Illuminated

Today's Extremes

State Highs State Lows

Community

WunderPhotos

Upload Photos

1,891,364 photos uploaded!

WunderBlog® & News

Nearby

Air Quality

  Air Quality AQ Index Pollutant
Not available.

Snow Depth

Station Depth Elevation

Earthquake Activity

City Distance Mag. Time & Date
Minimum magnitude displayed is 2.5.

Coastal Water Temperatures

Place Temperature

Stations

Nearby Weather Stations

Station Location Temp. Windchill Dew Point Humidity Wind Precip. Elev Updated Type
                   

Watches & Warnings

There are currently no watches in effect.